sensor_id;sensor_type;location;lat;lon;timestamp;P1;durP1;ratioP1;P2;durP2;ratioP2
76631;SDS011;65526;48.578;-4.520;2024-01-11T00:00:21;24.05;;;12.38;;
76631;SDS011;65526;48.578;-4.520;2024-01-11T00:02:47;24.95;;;11.48;;
76631;SDS011;65526;48.578;-4.520;2024-01-11T00:05:14;22.42;;;11.60;;
76631;SDS011;65526;48.578;-4.520;2024-01-11T00:07:40;19.38;;;10.63;;
76631;SDS011;65526;48.578;-4.520;2024-01-11T00:10:07;22.40;;;11.18;;
76631;SDS011;65526;48.578;-4.520;2024-01-11T00:12:33;20.35;;;10.63;;
76631;SDS011;65526;48.578;-4.520;2024-01-11T00:15:00;22.58;;;11.13;;
76631;SDS011;65526;48.578;-4.520;2024-01-11T00:17:26;20.75;;;10.38;;
76631;SDS011;65526;48.578;-4.520;2024-01-11T00:19:52;23.48;;;11.95;;
76631;SDS011;65526;48.578;-4.520;2024-01-11T00:22:19;22.75;;;11.52;;
76631;SDS011;65526;48.578;-4.520;2024-01-11T00:24:45;17.77;;;9.30;;
76631;SDS011;65526;48.578;-4.520;2024-01-11T00:27:12;17.73;;;10.00;;
76631;SDS011;65526;48.578;-4.520;2024-01-11T00:29:38;17.50;;;9.23;;
76631;SDS011;65526;48.578;-4.520;2024-01-11T00:32:05;20.52;;;10.27;;
76631;SDS011;65526;48.578;-4.520;2024-01-11T00:34:31;20.10;;;10.13;;
76631;SDS011;65526;48.578;-4.520;2024-01-11T00:36:58;21.42;;;10.20;;
76631;SDS011;65526;48.578;-4.520;2024-01-11T00:39:24;23.65;;;11.57;;
76631;SDS011;65526;48.578;-4.520;2024-01-11T00:41:51;21.20;;;11.15;;
76631;SDS011;65526;48.578;-4.520;2024-01-11T00:44:17;24.30;;;11.82;;
76631;SDS011;65526;48.578;-4.520;2024-01-11T00:46:44;25.70;;;11.48;;
76631;SDS011;65526;48.578;-4.520;2024-01-11T00:49:10;20.70;;;11.57;;
76631;SDS011;65526;48.578;-4.520;2024-01-11T00:51:37;23.38;;;10.90;;
76631;SDS011;65526;48.578;-4.520;2024-01-11T00:54:03;18.52;;;9.65;;
76631;SDS011;65526;48.578;-4.520;2024-01-11T00:56:30;19.70;;;10.27;;
76631;SDS011;65526;48.578;-4.520;2024-01-11T00:58:57;20.50;;;9.77;;
76631;SDS011;65526;48.578;-4.520;2024-01-11T01:01:26;15.43;;;8.27;;
76631;SDS011;65526;48.578;-4.520;2024-01-11T01:03:52;17.30;;;8.52;;
76631;SDS011;65526;48.578;-4.520;2024-01-11T01:06:19;19.40;;;9.80;;
76631;SDS011;65526;48.578;-4.520;2024-01-11T01:08:45;19.30;;;8.73;;
76631;SDS011;65526;48.578;-4.520;2024-01-11T01:11:11;22.00;;;10.43;;
76631;SDS011;65526;48.578;-4.520;2024-01-11T01:13:38;23.52;;;10.48;;
76631;SDS011;65526;48.578;-4.520;2024-01-11T01:16:04;22.33;;;10.98;;
76631;SDS011;65526;48.578;-4.520;2024-01-11T01:18:31;24.80;;;12.02;;
76631;SDS011;65526;48.578;-4.520;2024-01-11T01:20:57;27.38;;;12.90;;
76631;SDS011;65526;48.578;-4.520;2024-01-11T01:23:24;26.42;;;13.77;;
76631;SDS011;65526;48.578;-4.520;2024-01-11T01:25:50;30.75;;;14.90;;
76631;SDS011;65526;48.578;-4.520;2024-01-11T01:28:16;33.28;;;16.35;;
76631;SDS011;65526;48.578;-4.520;2024-01-11T01:30:43;32.47;;;15.27;;
76631;SDS011;65526;48.578;-4.520;2024-01-11T01:33:09;34.40;;;16.40;;
76631;SDS011;65526;48.578;-4.520;2024-01-11T01:35:35;33.40;;;15.13;;
76631;SDS011;65526;48.578;-4.520;2024-01-11T01:38:02;33.30;;;16.20;;
76631;SDS011;65526;48.578;-4.520;2024-01-11T01:40:32;33.08;;;15.93;;
76631;SDS011;65526;48.578;-4.520;2024-01-11T01:42:58;32.75;;;16.15;;
76631;SDS011;65526;48.578;-4.520;2024-01-11T01:45:25;34.40;;;16.08;;
76631;SDS011;65526;48.578;-4.520;2024-01-11T01:47:53;37.15;;;16.23;;
76631;SDS011;65526;48.578;-4.520;2024-01-11T01:50:20;31.02;;;15.50;;
76631;SDS011;65526;48.578;-4.520;2024-01-11T01:52:47;35.40;;;14.93;;
76631;SDS011;65526;48.578;-4.520;2024-01-11T01:55:15;35.40;;;15.73;;
76631;SDS011;65526;48.578;-4.520;2024-01-11T01:57:42;30.83;;;15.15;;
76631;SDS011;65526;48.578;-4.520;2024-01-11T02:00:11;34.65;;;15.07;;
76631;SDS011;65526;48.578;-4.520;2024-01-11T02:02:44;30.63;;;15.27;;
76631;SDS011;65526;48.578;-4.520;2024-01-11T02:05:16;31.60;;;14.20;;
76631;SDS011;65526;48.578;-4.520;2024-01-11T02:07:43;32.25;;;14.63;;
76631;SDS011;65526;48.578;-4.520;2024-01-11T02:10:10;32.58;;;14.50;;
76631;SDS011;65526;48.578;-4.520;2024-01-11T02:12:37;29.38;;;14.27;;
76631;SDS011;65526;48.578;-4.520;2024-01-11T02:15:06;29.02;;;13.70;;
76631;SDS011;65526;48.578;-4.520;2024-01-11T02:17:32;27.42;;;12.50;;
76631;SDS011;65526;48.578;-4.520;2024-01-11T02:19:59;25.92;;;13.27;;
76631;SDS011;65526;48.578;-4.520;2024-01-11T02:22:28;26.73;;;12.48;;
76631;SDS011;65526;48.578;-4.520;2024-01-11T02:24:58;32.17;;;13.23;;
76631;SDS011;65526;48.578;-4.520;2024-01-11T02:27:24;25.02;;;13.13;;
76631;SDS011;65526;48.578;-4.520;2024-01-11T02:29:51;25.67;;;12.20;;
76631;SDS011;65526;48.578;-4.520;2024-01-11T02:32:17;23.88;;;13.20;;
76631;SDS011;65526;48.578;-4.520;2024-01-11T02:34:44;26.77;;;13.10;;
76631;SDS011;65526;48.578;-4.520;2024-01-11T02:37:10;26.67;;;12.43;;
76631;SDS011;65526;48.578;-4.520;2024-01-11T02:39:37;25.88;;;11.68;;
76631;SDS011;65526;48.578;-4.520;2024-01-11T02:42:03;27.52;;;12.63;;
76631;SDS011;65526;48.578;-4.520;2024-01-11T02:44:30;26.13;;;11.63;;
76631;SDS011;65526;48.578;-4.520;2024-01-11T02:46:56;26.73;;;12.93;;
76631;SDS011;65526;48.578;-4.520;2024-01-11T02:49:23;25.60;;;12.05;;
76631;SDS011;65526;48.578;-4.520;2024-01-11T02:51:49;29.80;;;12.93;;
76631;SDS011;65526;48.578;-4.520;2024-01-11T02:54:16;28.27;;;12.63;;
76631;SDS011;65526;48.578;-4.520;2024-01-11T02:56:42;26.35;;;11.77;;
76631;SDS011;65526;48.578;-4.520;2024-01-11T02:59:08;27.65;;;11.98;;
76631;SDS011;65526;48.578;-4.520;2024-01-11T03:01:35;26.50;;;11.52;;
76631;SDS011;65526;48.578;-4.520;2024-01-11T03:04:01;25.23;;;12.10;;
76631;SDS011;65526;48.578;-4.520;2024-01-11T03:06:28;25.45;;;13.07;;
76631;SDS011;65526;48.578;-4.520;2024-01-11T03:08:54;24.20;;;11.98;;
76631;SDS011;65526;48.578;-4.520;2024-01-11T03:11:21;25.23;;;12.10;;
76631;SDS011;65526;48.578;-4.520;2024-01-11T03:13:47;29.73;;;12.45;;
76631;SDS011;65526;48.578;-4.520;2024-01-11T03:16:14;22.17;;;11.60;;
76631;SDS011;65526;48.578;-4.520;2024-01-11T03:18:40;27.05;;;12.52;;
76631;SDS011;65526;48.578;-4.520;2024-01-11T03:21:06;27.58;;;11.75;;
76631;SDS011;65526;48.578;-4.520;2024-01-11T03:23:33;26.80;;;12.35;;
76631;SDS011;65526;48.578;-4.520;2024-01-11T03:25:59;26.67;;;12.57;;
76631;SDS011;65526;48.578;-4.520;2024-01-11T03:28:26;27.77;;;11.35;;
76631;SDS011;65526;48.578;-4.520;2024-01-11T03:30:53;26.38;;;12.73;;
76631;SDS011;65526;48.578;-4.520;2024-01-11T03:33:19;24.65;;;11.82;;
76631;SDS011;65526;48.578;-4.520;2024-01-11T03:35:45;31.35;;;12.23;;
76631;SDS011;65526;48.578;-4.520;2024-01-11T03:38:12;27.63;;;12.80;;
76631;SDS011;65526;48.578;-4.520;2024-01-11T03:40:38;26.05;;;12.20;;
76631;SDS011;65526;48.578;-4.520;2024-01-11T03:43:05;26.65;;;11.77;;
76631;SDS011;65526;48.578;-4.520;2024-01-11T03:45:31;28.45;;;12.52;;
76631;SDS011;65526;48.578;-4.520;2024-01-11T03:47:57;29.52;;;12.35;;
76631;SDS011;65526;48.578;-4.520;2024-01-11T03:50:24;31.63;;;13.85;;
76631;SDS011;65526;48.578;-4.520;2024-01-11T03:52:50;27.00;;;12.77;;
76631;SDS011;65526;48.578;-4.520;2024-01-11T03:55:16;30.90;;;13.45;;
76631;SDS011;65526;48.578;-4.520;2024-01-11T03:57:43;28.83;;;12.98;;
76631;SDS011;65526;48.578;-4.520;2024-01-11T04:00:10;30.08;;;12.70;;
76631;SDS011;65526;48.578;-4.520;2024-01-11T04:02:37;29.75;;;11.98;;
76631;SDS011;65526;48.578;-4.520;2024-01-11T04:05:03;27.90;;;12.65;;
76631;SDS011;65526;48.578;-4.520;2024-01-11T04:07:30;28.30;;;12.70;;
76631;SDS011;65526;48.578;-4.520;2024-01-11T04:09:56;27.92;;;13.10;;
76631;SDS011;65526;48.578;-4.520;2024-01-11T04:12:23;27.85;;;12.77;;
76631;SDS011;65526;48.578;-4.520;2024-01-11T04:14:49;26.95;;;12.75;;
76631;SDS011;65526;48.578;-4.520;2024-01-11T04:17:15;30.52;;;13.52;;
76631;SDS011;65526;48.578;-4.520;2024-01-11T04:19:42;28.35;;;13.77;;
76631;SDS011;65526;48.578;-4.520;2024-01-11T04:22:08;30.80;;;13.90;;
76631;SDS011;65526;48.578;-4.520;2024-01-11T04:24:35;29.77;;;13.00;;
76631;SDS011;65526;48.578;-4.520;2024-01-11T04:27:01;25.70;;;13.00;;
76631;SDS011;65526;48.578;-4.520;2024-01-11T04:29:28;28.05;;;13.57;;
76631;SDS011;65526;48.578;-4.520;2024-01-11T04:31:54;29.80;;;13.40;;
76631;SDS011;65526;48.578;-4.520;2024-01-11T04:34:21;28.13;;;13.82;;
76631;SDS011;65526;48.578;-4.520;2024-01-11T04:36:47;30.42;;;13.32;;
76631;SDS011;65526;48.578;-4.520;2024-01-11T04:39:13;29.40;;;14.48;;
76631;SDS011;65526;48.578;-4.520;2024-01-11T04:41:40;31.92;;;14.10;;
76631;SDS011;65526;48.578;-4.520;2024-01-11T04:44:06;26.70;;;12.80;;
76631;SDS011;65526;48.578;-4.520;2024-01-11T04:46:33;29.60;;;13.63;;
76631;SDS011;65526;48.578;-4.520;2024-01-11T04:49:00;29.60;;;13.15;;
76631;SDS011;65526;48.578;-4.520;2024-01-11T04:51:27;30.73;;;13.18;;
76631;SDS011;65526;48.578;-4.520;2024-01-11T04:53:53;27.88;;;13.25;;
76631;SDS011;65526;48.578;-4.520;2024-01-11T04:56:19;28.42;;;13.50;;
76631;SDS011;65526;48.578;-4.520;2024-01-11T04:58:46;34.10;;;14.70;;
76631;SDS011;65526;48.578;-4.520;2024-01-11T05:01:13;28.42;;;14.07;;
76631;SDS011;65526;48.578;-4.520;2024-01-11T05:03:44;26.67;;;11.80;;
76631;SDS011;65526;48.578;-4.520;2024-01-11T05:06:18;30.88;;;13.38;;
76631;SDS011;65526;48.578;-4.520;2024-01-11T05:08:46;30.83;;;13.07;;
76631;SDS011;65526;48.578;-4.520;2024-01-11T05:11:16;33.53;;;13.88;;
76631;SDS011;65526;48.578;-4.520;2024-01-11T05:13:43;27.50;;;13.27;;
76631;SDS011;65526;48.578;-4.520;2024-01-11T05:16:20;26.63;;;12.73;;
76631;SDS011;65526;48.578;-4.520;2024-01-11T05:18:48;30.50;;;12.55;;
76631;SDS011;65526;48.578;-4.520;2024-01-11T05:21:15;26.35;;;12.40;;
76631;SDS011;65526;48.578;-4.520;2024-01-11T05:23:42;29.30;;;13.50;;
76631;SDS011;65526;48.578;-4.520;2024-01-11T05:26:09;27.95;;;13.57;;
76631;SDS011;65526;48.578;-4.520;2024-01-11T05:28:36;27.65;;;12.18;;
76631;SDS011;65526;48.578;-4.520;2024-01-11T05:31:05;25.27;;;12.18;;
76631;SDS011;65526;48.578;-4.520;2024-01-11T05:33:33;25.15;;;11.88;;
76631;SDS011;65526;48.578;-4.520;2024-01-11T05:35:59;31.48;;;13.93;;
76631;SDS011;65526;48.578;-4.520;2024-01-11T05:38:26;27.75;;;12.48;;
76631;SDS011;65526;48.578;-4.520;2024-01-11T05:40:52;24.98;;;11.63;;
76631;SDS011;65526;48.578;-4.520;2024-01-11T05:43:19;26.58;;;11.65;;
76631;SDS011;65526;48.578;-4.520;2024-01-11T05:45:45;26.92;;;12.57;;
76631;SDS011;65526;48.578;-4.520;2024-01-11T05:48:11;27.52;;;12.68;;
76631;SDS011;65526;48.578;-4.520;2024-01-11T05:50:38;26.15;;;12.52;;
76631;SDS011;65526;48.578;-4.520;2024-01-11T05:53:04;24.05;;;11.13;;
76631;SDS011;65526;48.578;-4.520;2024-01-11T05:55:30;26.92;;;12.43;;
76631;SDS011;65526;48.578;-4.520;2024-01-11T05:57:57;25.63;;;11.52;;
76631;SDS011;65526;48.578;-4.520;2024-01-11T06:00:23;27.80;;;11.88;;
76631;SDS011;65526;48.578;-4.520;2024-01-11T06:02:50;28.60;;;13.18;;
76631;SDS011;65526;48.578;-4.520;2024-01-11T06:05:16;25.67;;;12.90;;
76631;SDS011;65526;48.578;-4.520;2024-01-11T06:07:42;29.48;;;12.23;;
76631;SDS011;65526;48.578;-4.520;2024-01-11T06:10:09;29.48;;;12.35;;
76631;SDS011;65526;48.578;-4.520;2024-01-11T06:12:36;29.15;;;12.30;;
76631;SDS011;65526;48.578;-4.520;2024-01-11T06:15:02;27.20;;;12.07;;
76631;SDS011;65526;48.578;-4.520;2024-01-11T06:17:29;28.98;;;12.73;;
76631;SDS011;65526;48.578;-4.520;2024-01-11T06:19:56;22.73;;;10.52;;
76631;SDS011;65526;48.578;-4.520;2024-01-11T06:22:22;25.73;;;11.73;;
76631;SDS011;65526;48.578;-4.520;2024-01-11T06:24:50;23.90;;;10.18;;
76631;SDS011;65526;48.578;-4.520;2024-01-11T06:27:16;21.95;;;9.75;;
76631;SDS011;65526;48.578;-4.520;2024-01-11T06:29:42;22.58;;;11.13;;
76631;SDS011;65526;48.578;-4.520;2024-01-11T06:32:09;26.33;;;11.55;;
76631;SDS011;65526;48.578;-4.520;2024-01-11T06:34:35;25.33;;;10.57;;
76631;SDS011;65526;48.578;-4.520;2024-01-11T06:37:02;24.50;;;11.27;;
76631;SDS011;65526;48.578;-4.520;2024-01-11T06:39:29;25.90;;;11.65;;
76631;SDS011;65526;48.578;-4.520;2024-01-11T06:41:58;24.60;;;10.05;;
76631;SDS011;65526;48.578;-4.520;2024-01-11T06:44:25;27.13;;;11.75;;
76631;SDS011;65526;48.578;-4.520;2024-01-11T06:46:51;21.50;;;10.35;;
76631;SDS011;65526;48.578;-4.520;2024-01-11T06:49:17;20.83;;;10.00;;
76631;SDS011;65526;48.578;-4.520;2024-01-11T06:51:44;22.83;;;9.77;;
76631;SDS011;65526;48.578;-4.520;2024-01-11T06:54:10;26.38;;;11.30;;
76631;SDS011;65526;48.578;-4.520;2024-01-11T06:56:36;24.45;;;11.27;;
76631;SDS011;65526;48.578;-4.520;2024-01-11T06:59:03;22.85;;;10.68;;
76631;SDS011;65526;48.578;-4.520;2024-01-11T07:01:29;24.58;;;10.07;;
76631;SDS011;65526;48.578;-4.520;2024-01-11T07:03:55;22.08;;;11.52;;
76631;SDS011;65526;48.578;-4.520;2024-01-11T07:06:22;19.58;;;9.82;;
76631;SDS011;65526;48.578;-4.520;2024-01-11T07:08:48;23.15;;;10.00;;
76631;SDS011;65526;48.578;-4.520;2024-01-11T07:11:14;22.58;;;10.60;;
76631;SDS011;65526;48.578;-4.520;2024-01-11T07:13:41;22.90;;;10.63;;
76631;SDS011;65526;48.578;-4.520;2024-01-11T07:16:08;21.38;;;9.40;;
76631;SDS011;65526;48.578;-4.520;2024-01-11T07:18:35;21.17;;;10.57;;
76631;SDS011;65526;48.578;-4.520;2024-01-11T07:21:01;22.63;;;10.00;;
76631;SDS011;65526;48.578;-4.520;2024-01-11T07:23:28;22.88;;;11.10;;
76631;SDS011;65526;48.578;-4.520;2024-01-11T07:25:54;25.05;;;10.75;;
76631;SDS011;65526;48.578;-4.520;2024-01-11T07:28:21;21.27;;;10.15;;
76631;SDS011;65526;48.578;-4.520;2024-01-11T07:30:51;22.13;;;10.70;;
76631;SDS011;65526;48.578;-4.520;2024-01-11T07:33:19;22.50;;;10.57;;
76631;SDS011;65526;48.578;-4.520;2024-01-11T07:35:46;21.58;;;9.70;;
76631;SDS011;65526;48.578;-4.520;2024-01-11T07:38:13;25.23;;;10.70;;
76631;SDS011;65526;48.578;-4.520;2024-01-11T07:40:40;26.98;;;11.07;;
76631;SDS011;65526;48.578;-4.520;2024-01-11T07:43:06;21.00;;;9.75;;
76631;SDS011;65526;48.578;-4.520;2024-01-11T07:45:33;22.85;;;9.88;;
76631;SDS011;65526;48.578;-4.520;2024-01-11T07:47:59;22.05;;;11.13;;
76631;SDS011;65526;48.578;-4.520;2024-01-11T07:50:26;21.33;;;9.52;;
76631;SDS011;65526;48.578;-4.520;2024-01-11T07:52:53;21.30;;;9.98;;
76631;SDS011;65526;48.578;-4.520;2024-01-11T07:55:21;20.48;;;10.52;;
76631;SDS011;65526;48.578;-4.520;2024-01-11T07:57:49;22.73;;;10.07;;
76631;SDS011;65526;48.578;-4.520;2024-01-11T08:00:16;25.50;;;10.55;;
76631;SDS011;65526;48.578;-4.520;2024-01-11T08:02:42;23.27;;;10.13;;
76631;SDS011;65526;48.578;-4.520;2024-01-11T08:05:09;19.40;;;9.15;;
76631;SDS011;65526;48.578;-4.520;2024-01-11T08:07:35;23.30;;;10.63;;
76631;SDS011;65526;48.578;-4.520;2024-01-11T08:10:02;20.88;;;9.65;;
76631;SDS011;65526;48.578;-4.520;2024-01-11T08:12:30;24.35;;;10.38;;
76631;SDS011;65526;48.578;-4.520;2024-01-11T08:14:56;21.58;;;9.45;;
76631;SDS011;65526;48.578;-4.520;2024-01-11T08:17:22;21.08;;;9.73;;
76631;SDS011;65526;48.578;-4.520;2024-01-11T08:19:49;18.52;;;9.60;;
76631;SDS011;65526;48.578;-4.520;2024-01-11T08:22:15;21.58;;;10.13;;
76631;SDS011;65526;48.578;-4.520;2024-01-11T08:24:41;27.75;;;11.30;;
76631;SDS011;65526;48.578;-4.520;2024-01-11T08:27:08;24.67;;;11.43;;
76631;SDS011;65526;48.578;-4.520;2024-01-11T08:29:34;21.92;;;10.85;;
76631;SDS011;65526;48.578;-4.520;2024-01-11T08:32:00;25.20;;;11.07;;
76631;SDS011;65526;48.578;-4.520;2024-01-11T08:34:30;23.70;;;10.60;;
76631;SDS011;65526;48.578;-4.520;2024-01-11T08:36:56;20.02;;;10.40;;
76631;SDS011;65526;48.578;-4.520;2024-01-11T08:39:23;23.63;;;10.55;;
76631;SDS011;65526;48.578;-4.520;2024-01-11T08:41:49;22.92;;;11.13;;
76631;SDS011;65526;48.578;-4.520;2024-01-11T08:44:15;24.65;;;11.30;;
76631;SDS011;65526;48.578;-4.520;2024-01-11T08:46:42;26.75;;;10.75;;
76631;SDS011;65526;48.578;-4.520;2024-01-11T08:49:09;22.67;;;11.55;;
76631;SDS011;65526;48.578;-4.520;2024-01-11T08:51:36;24.88;;;11.63;;
76631;SDS011;65526;48.578;-4.520;2024-01-11T08:54:02;26.30;;;12.48;;
76631;SDS011;65526;48.578;-4.520;2024-01-11T08:56:30;22.17;;;10.43;;
76631;SDS011;65526;48.578;-4.520;2024-01-11T08:58:56;19.15;;;10.38;;
76631;SDS011;65526;48.578;-4.520;2024-01-11T09:01:24;28.40;;;11.55;;
76631;SDS011;65526;48.578;-4.520;2024-01-11T09:03:51;23.27;;;11.45;;
76631;SDS011;65526;48.578;-4.520;2024-01-11T09:06:17;21.80;;;10.43;;
76631;SDS011;65526;48.578;-4.520;2024-01-11T09:08:43;26.15;;;11.18;;
76631;SDS011;65526;48.578;-4.520;2024-01-11T09:11:10;22.10;;;10.38;;
76631;SDS011;65526;48.578;-4.520;2024-01-11T09:13:36;21.55;;;10.57;;
76631;SDS011;65526;48.578;-4.520;2024-01-11T09:16:03;26.23;;;10.52;;
76631;SDS011;65526;48.578;-4.520;2024-01-11T09:18:29;25.63;;;11.63;;
76631;SDS011;65526;48.578;-4.520;2024-01-11T09:20:56;25.52;;;12.15;;
76631;SDS011;65526;48.578;-4.520;2024-01-11T09:23:23;23.35;;;11.40;;
76631;SDS011;65526;48.578;-4.520;2024-01-11T09:25:49;23.58;;;11.00;;
76631;SDS011;65526;48.578;-4.520;2024-01-11T09:28:15;24.63;;;11.32;;
76631;SDS011;65526;48.578;-4.520;2024-01-11T09:30:42;24.65;;;11.48;;
76631;SDS011;65526;48.578;-4.520;2024-01-11T09:33:08;25.60;;;11.35;;
76631;SDS011;65526;48.578;-4.520;2024-01-11T09:35:35;23.63;;;10.38;;
76631;SDS011;65526;48.578;-4.520;2024-01-11T09:38:01;21.23;;;10.48;;
76631;SDS011;65526;48.578;-4.520;2024-01-11T09:40:28;22.20;;;10.82;;
76631;SDS011;65526;48.578;-4.520;2024-01-11T09:42:54;22.70;;;10.88;;
76631;SDS011;65526;48.578;-4.520;2024-01-11T09:45:21;23.27;;;10.50;;
76631;SDS011;65526;48.578;-4.520;2024-01-11T09:47:47;27.35;;;11.45;;
76631;SDS011;65526;48.578;-4.520;2024-01-11T09:50:16;23.05;;;10.32;;
76631;SDS011;65526;48.578;-4.520;2024-01-11T09:52:48;22.98;;;11.07;;
76631;SDS011;65526;48.578;-4.520;2024-01-11T09:55:15;22.92;;;10.40;;
76631;SDS011;65526;48.578;-4.520;2024-01-11T09:57:47;21.02;;;9.60;;
76631;SDS011;65526;48.578;-4.520;2024-01-11T10:00:16;19.77;;;10.25;;
76631;SDS011;65526;48.578;-4.520;2024-01-11T10:02:45;23.33;;;10.88;;
76631;SDS011;65526;48.578;-4.520;2024-01-11T10:05:12;22.60;;;11.50;;
76631;SDS011;65526;48.578;-4.520;2024-01-11T10:07:42;24.17;;;10.40;;
76631;SDS011;65526;48.578;-4.520;2024-01-11T10:10:08;23.40;;;11.25;;
76631;SDS011;65526;48.578;-4.520;2024-01-11T10:12:35;25.02;;;11.30;;
76631;SDS011;65526;48.578;-4.520;2024-01-11T10:15:09;21.60;;;10.63;;
76631;SDS011;65526;48.578;-4.520;2024-01-11T10:17:37;22.90;;;10.90;;
76631;SDS011;65526;48.578;-4.520;2024-01-11T10:20:08;20.67;;;9.30;;
76631;SDS011;65526;48.578;-4.520;2024-01-11T10:22:36;23.88;;;10.65;;
76631;SDS011;65526;48.578;-4.520;2024-01-11T10:25:12;18.38;;;9.80;;
76631;SDS011;65526;48.578;-4.520;2024-01-11T10:27:40;26.13;;;10.60;;
76631;SDS011;65526;48.578;-4.520;2024-01-11T10:32:39;22.80;;;9.80;;
76631;SDS011;65526;48.578;-4.520;2024-01-11T10:35:05;22.23;;;10.32;;
76631;SDS011;65526;48.578;-4.520;2024-01-11T10:37:32;21.90;;;10.10;;
76631;SDS011;65526;48.578;-4.520;2024-01-11T10:40:02;20.15;;;9.73;;
76631;SDS011;65526;48.578;-4.520;2024-01-11T10:42:35;19.90;;;9.55;;
76631;SDS011;65526;48.578;-4.520;2024-01-11T10:45:03;21.08;;;10.35;;
76631;SDS011;65526;48.578;-4.520;2024-01-11T10:47:35;22.42;;;9.63;;
76631;SDS011;65526;48.578;-4.520;2024-01-11T10:50:04;21.55;;;8.98;;
76631;SDS011;65526;48.578;-4.520;2024-01-11T10:52:36;20.92;;;9.73;;
76631;SDS011;65526;48.578;-4.520;2024-01-11T10:55:09;21.35;;;8.70;;
76631;SDS011;65526;48.578;-4.520;2024-01-11T10:57:36;20.02;;;10.57;;
76631;SDS011;65526;48.578;-4.520;2024-01-11T11:00:03;18.17;;;8.27;;
76631;SDS011;65526;48.578;-4.520;2024-01-11T11:02:31;17.58;;;9.30;;
76631;SDS011;65526;48.578;-4.520;2024-01-11T11:05:01;20.38;;;9.48;;
76631;SDS011;65526;48.578;-4.520;2024-01-11T11:07:31;19.05;;;9.18;;
76631;SDS011;65526;48.578;-4.520;2024-01-11T11:09:59;18.15;;;8.95;;
76631;SDS011;65526;48.578;-4.520;2024-01-11T11:12:31;17.40;;;8.07;;
76631;SDS011;65526;48.578;-4.520;2024-01-11T11:14:58;19.38;;;8.75;;
76631;SDS011;65526;48.578;-4.520;2024-01-11T11:17:27;14.40;;;8.13;;
76631;SDS011;65526;48.578;-4.520;2024-01-11T11:19:54;21.35;;;8.07;;
76631;SDS011;65526;48.578;-4.520;2024-01-11T11:22:21;16.23;;;7.20;;
76631;SDS011;65526;48.578;-4.520;2024-01-11T11:24:47;17.08;;;8.10;;
76631;SDS011;65526;48.578;-4.520;2024-01-11T11:27:14;14.63;;;7.68;;
76631;SDS011;65526;48.578;-4.520;2024-01-11T11:29:46;13.73;;;7.07;;
76631;SDS011;65526;48.578;-4.520;2024-01-11T11:32:14;13.77;;;6.70;;
76631;SDS011;65526;48.578;-4.520;2024-01-11T11:34:42;13.90;;;6.93;;
76631;SDS011;65526;48.578;-4.520;2024-01-11T11:37:12;13.35;;;6.38;;
76631;SDS011;65526;48.578;-4.520;2024-01-11T11:39:38;16.70;;;7.88;;
76631;SDS011;65526;48.578;-4.520;2024-01-11T11:42:07;12.52;;;6.68;;
76631;SDS011;65526;48.578;-4.520;2024-01-11T11:44:35;14.13;;;7.05;;
76631;SDS011;65526;48.578;-4.520;2024-01-11T11:47:20;13.82;;;6.68;;
76631;SDS011;65526;48.578;-4.520;2024-01-11T11:49:58;12.93;;;6.50;;
76631;SDS011;65526;48.578;-4.520;2024-01-11T11:52:35;15.27;;;6.20;;
76631;SDS011;65526;48.578;-4.520;2024-01-11T11:55:03;11.93;;;5.88;;
76631;SDS011;65526;48.578;-4.520;2024-01-11T11:57:33;14.50;;;6.07;;
76631;SDS011;65526;48.578;-4.520;2024-01-11T12:00:00;11.15;;;6.10;;
76631;SDS011;65526;48.578;-4.520;2024-01-11T12:02:39;12.73;;;6.05;;
76631;SDS011;65526;48.578;-4.520;2024-01-11T12:05:05;11.75;;;5.95;;
76631;SDS011;65526;48.578;-4.520;2024-01-11T12:07:32;12.57;;;6.70;;
76631;SDS011;65526;48.578;-4.520;2024-01-11T12:09:58;12.25;;;6.57;;
76631;SDS011;65526;48.578;-4.520;2024-01-11T12:12:25;9.95;;;5.45;;
76631;SDS011;65526;48.578;-4.520;2024-01-11T12:14:52;11.93;;;5.65;;
76631;SDS011;65526;48.578;-4.520;2024-01-11T12:17:19;12.60;;;6.45;;
76631;SDS011;65526;48.578;-4.520;2024-01-11T12:19:46;14.70;;;6.07;;
76631;SDS011;65526;48.578;-4.520;2024-01-11T12:22:12;10.73;;;5.75;;
76631;SDS011;65526;48.578;-4.520;2024-01-11T12:24:38;12.82;;;6.32;;
76631;SDS011;65526;48.578;-4.520;2024-01-11T12:27:05;10.27;;;6.18;;
76631;SDS011;65526;48.578;-4.520;2024-01-11T12:29:31;12.98;;;6.65;;
76631;SDS011;65526;48.578;-4.520;2024-01-11T12:31:58;15.73;;;6.53;;
76631;SDS011;65526;48.578;-4.520;2024-01-11T12:34:26;9.88;;;5.90;;
76631;SDS011;65526;48.578;-4.520;2024-01-11T12:36:53;15.00;;;6.35;;
76631;SDS011;65526;48.578;-4.520;2024-01-11T12:39:21;13.75;;;6.45;;
76631;SDS011;65526;48.578;-4.520;2024-01-11T12:44:19;12.07;;;5.85;;
76631;SDS011;65526;48.578;-4.520;2024-01-11T12:46:49;10.13;;;5.68;;
76631;SDS011;65526;48.578;-4.520;2024-01-11T12:49:17;14.10;;;6.07;;
76631;SDS011;65526;48.578;-4.520;2024-01-11T12:51:43;13.52;;;6.13;;
76631;SDS011;65526;48.578;-4.520;2024-01-11T12:54:13;11.80;;;6.22;;
76631;SDS011;65526;48.578;-4.520;2024-01-11T12:56:49;11.43;;;6.15;;
76631;SDS011;65526;48.578;-4.520;2024-01-11T12:59:16;12.68;;;6.35;;
76631;SDS011;65526;48.578;-4.520;2024-01-11T13:01:42;12.55;;;5.63;;
76631;SDS011;65526;48.578;-4.520;2024-01-11T13:04:09;13.68;;;6.20;;
76631;SDS011;65526;48.578;-4.520;2024-01-11T13:06:36;12.18;;;5.78;;
76631;SDS011;65526;48.578;-4.520;2024-01-11T13:09:03;15.48;;;5.78;;
76631;SDS011;65526;48.578;-4.520;2024-01-11T13:11:30;9.45;;;5.15;;
76631;SDS011;65526;48.578;-4.520;2024-01-11T13:13:56;9.18;;;5.68;;
76631;SDS011;65526;48.578;-4.520;2024-01-11T13:16:25;11.25;;;6.18;;
76631;SDS011;65526;48.578;-4.520;2024-01-11T13:18:51;11.52;;;6.22;;
76631;SDS011;65526;48.578;-4.520;2024-01-11T13:21:18;8.52;;;5.70;;
76631;SDS011;65526;48.578;-4.520;2024-01-11T13:23:44;12.38;;;5.78;;
76631;SDS011;65526;48.578;-4.520;2024-01-11T13:26:11;12.32;;;5.40;;
76631;SDS011;65526;48.578;-4.520;2024-01-11T13:28:37;10.45;;;5.72;;
76631;SDS011;65526;48.578;-4.520;2024-01-11T13:31:04;11.75;;;5.47;;
76631;SDS011;65526;48.578;-4.520;2024-01-11T13:33:30;11.65;;;5.43;;
76631;SDS011;65526;48.578;-4.520;2024-01-11T13:35:56;8.55;;;4.95;;
76631;SDS011;65526;48.578;-4.520;2024-01-11T13:38:23;13.85;;;6.20;;
76631;SDS011;65526;48.578;-4.520;2024-01-11T13:40:49;13.10;;;5.55;;
76631;SDS011;65526;48.578;-4.520;2024-01-11T13:43:16;12.10;;;5.50;;
76631;SDS011;65526;48.578;-4.520;2024-01-11T13:45:43;14.40;;;5.47;;
76631;SDS011;65526;48.578;-4.520;2024-01-11T13:48:10;13.65;;;5.85;;
76631;SDS011;65526;48.578;-4.520;2024-01-11T13:50:37;14.43;;;6.20;;
76631;SDS011;65526;48.578;-4.520;2024-01-11T13:53:03;10.15;;;6.03;;
76631;SDS011;65526;48.578;-4.520;2024-01-11T13:55:30;13.73;;;5.68;;
76631;SDS011;65526;48.578;-4.520;2024-01-11T13:58:03;16.23;;;6.18;;
76631;SDS011;65526;48.578;-4.520;2024-01-11T14:00:30;14.90;;;5.78;;
76631;SDS011;65526;48.578;-4.520;2024-01-11T14:02:57;10.73;;;5.25;;
76631;SDS011;65526;48.578;-4.520;2024-01-11T14:05:23;8.80;;;4.63;;
76631;SDS011;65526;48.578;-4.520;2024-01-11T14:07:50;10.27;;;5.00;;
76631;SDS011;65526;48.578;-4.520;2024-01-11T14:10:23;9.18;;;5.03;;
76631;SDS011;65526;48.578;-4.520;2024-01-11T14:12:49;11.63;;;4.90;;
76631;SDS011;65526;48.578;-4.520;2024-01-11T14:15:16;10.63;;;4.93;;
76631;SDS011;65526;48.578;-4.520;2024-01-11T14:17:42;10.85;;;5.55;;